Time;durP1;ratioP1;P1;durP2;ratioP2;P2;SDS_P1;SDS_P2;PMS_P1;PMS_P2;Temp;Humidity;BMP_temperature;BMP_pressure;BME280_temperature;BME280_humidity;BME280_pressure;Samples;Min_cycle;Max_cycle;Signal;HPM_P1;HPM_P2
2024/01/29 00:00:53;;;;;;;13.82;4.00;;;;;;;17.99;100.00;102121.75;4991523;28;20128;-48
2024/01/29 00:03:22;;;;;;;13.75;4.53;;;;;;;17.98;100.00;102126.59;4991506;28;20136;-47
2024/01/29 00:05:49;;;;;;;12.20;3.70;;;;;;;17.97;100.00;102129.84;4997819;28;20134;-46
2024/01/29 00:08:16;;;;;;;11.20;3.25;;;;;;;17.95;100.00;102124.63;4991013;28;20061;-49
2024/01/29 00:10:43;;;;;;;15.75;3.92;;;;;;;17.97;100.00;102124.22;4990955;28;20425;-50
2024/01/29 00:13:09;;;;;;;9.75;3.35;;;;;;;17.97;100.00;102125.00;4991191;28;20093;-49
2024/01/29 00:15:36;;;;;;;12.00;3.45;;;;;;;17.96;100.00;102123.41;4991024;28;20054;-49
2024/01/29 00:18:03;;;;;;;12.27;3.70;;;;;;;17.97;100.00;102118.56;4990025;28;20046;-50
2024/01/29 00:20:30;;;;;;;14.98;3.85;;;;;;;17.96;100.00;102128.25;4998662;28;20113;-47
2024/01/29 00:22:57;;;;;;;11.80;4.07;;;;;;;17.96;100.00;102122.63;4991315;28;20572;-51
2024/01/29 00:25:23;;;;;;;12.98;3.72;;;;;;;17.95;100.00;102126.69;4993984;28;20149;-52
2024/01/29 00:27:53;;;;;;;13.18;3.47;;;;;;;17.95;100.00;102121.06;4988549;28;20050;-51
2024/01/29 00:30:19;;;;;;;13.68;4.00;;;;;;;17.94;100.00;102119.44;4988564;28;20141;-48
2024/01/29 00:32:46;;;;;;;13.77;3.92;;;;;;;17.94;100.00;102127.88;4986430;28;20130;-48
2024/01/29 00:35:13;;;;;;;9.32;3.17;;;;;;;17.95;100.00;102119.00;4991992;28;20104;-47
2024/01/29 00:37:39;;;;;;;12.50;3.53;;;;;;;17.95;100.00;102123.88;4988458;28;20096;-48
2024/01/29 00:40:08;;;;;;;9.63;3.42;;;;;;;17.94;100.00;102116.63;4988108;28;20049;-47
2024/01/29 00:42:34;;;;;;;10.63;3.65;;;;;;;17.96;100.00;102117.00;4987797;28;20042;-47
2024/01/29 00:45:01;;;;;;;11.73;3.75;;;;;;;17.94;100.00;102119.44;4991764;28;20050;-47
2024/01/29 00:47:27;;;;;;;12.10;4.03;;;;;;;17.94;100.00;102117.44;4994254;28;20054;-45
2024/01/29 00:49:54;;;;;;;11.00;3.38;;;;;;;17.94;100.00;102120.25;5004165;28;20558;-46
2024/01/29 00:52:20;;;;;;;10.05;3.05;;;;;;;17.94;100.00;102116.63;5000555;28;20061;-48
2024/01/29 00:54:47;;;;;;;12.25;3.15;;;;;;;17.94;100.00;102128.69;4984792;28;20114;-47
2024/01/29 00:57:15;;;;;;;11.15;3.72;;;;;;;17.93;100.00;102127.13;4997538;28;20041;-47
2024/01/29 00:59:42;;;;;;;9.70;2.92;;;;;;;17.94;100.00;102122.25;5002697;28;20070;-47
2024/01/29 01:02:09;;;;;;;11.45;3.60;;;;;;;17.91;100.00;102125.91;4995011;28;20468;-47
2024/01/29 01:04:35;;;;;;;8.48;2.80;;;;;;;17.93;100.00;102123.47;5000373;28;20513;-47
2024/01/29 01:07:02;;;;;;;10.93;3.22;;;;;;;17.93;100.00;102120.66;4996704;28;20129;-48
2024/01/29 01:09:29;;;;;;;8.75;2.90;;;;;;;17.92;100.00;102119.06;4989828;28;20074;-48
2024/01/29 01:11:55;;;;;;;12.20;2.88;;;;;;;17.93;100.00;102118.66;5003807;28;20045;-47
2024/01/29 01:14:22;;;;;;;9.73;2.85;;;;;;;17.94;100.00;102123.06;5000729;28;20054;-47
2024/01/29 01:16:48;;;;;;;10.30;3.25;;;;;;;17.93;100.00;102123.47;4991890;28;20136;-47
2024/01/29 01:19:15;;;;;;;8.93;2.97;;;;;;;17.92;100.00;102125.47;4992215;28;20105;-48
2024/01/29 01:21:41;;;;;;;8.55;3.20;;;;;;;17.93;100.00;102126.28;4991356;28;20058;-47
2024/01/29 01:24:08;;;;;;;9.65;3.13;;;;;;;17.93;100.00;102123.47;5002715;28;20050;-48
2024/01/29 01:26:35;;;;;;;10.60;3.05;;;;;;;17.92;100.00;102128.28;5000148;28;20066;-47
2024/01/29 01:29:01;;;;;;;9.55;2.63;;;;;;;17.93;100.00;102137.53;5003471;28;20493;-45
2024/01/29 01:31:28;;;;;;;7.18;2.85;;;;;;;17.93;100.00;102131.91;5000528;28;21784;-47
2024/01/29 01:33:56;;;;;;;10.43;3.70;;;;;;;17.92;100.00;102135.97;4997638;28;20472;-47
2024/01/29 01:36:23;;;;;;;9.50;2.65;;;;;;;17.93;100.00;102137.53;4993415;28;20050;-46
2024/01/29 01:38:51;;;;;;;7.10;2.67;;;;;;;17.92;100.00;102138.78;4986013;28;20062;-46
2024/01/29 01:41:20;;;;;;;8.95;2.85;;;;;;;17.92;100.00;102159.25;4999269;28;20130;-45
2024/01/29 01:43:47;;;;;;;10.70;3.25;;;;;;;17.94;100.00;102148.38;4993179;28;20046;-47
2024/01/29 01:46:22;;;;;;;10.32;2.92;;;;;;;17.94;100.00;102150.41;4998828;28;20050;-47
2024/01/29 01:48:51;;;;;;;8.15;2.88;;;;;;;17.93;100.00;102151.59;4998647;28;20046;-47
2024/01/29 01:51:19;;;;;;;9.02;2.65;;;;;;;17.93;100.00;102162.84;4999834;28;20046;-47
2024/01/29 01:53:47;;;;;;;8.10;2.60;;;;;;;17.93;100.00;102151.59;4994885;28;20053;-47
2024/01/29 01:56:14;;;;;;;7.57;3.15;;;;;;;17.94;100.00;102153.22;5001146;28;20074;-46
2024/01/29 01:58:41;;;;;;;8.95;2.92;;;;;;;17.94;100.00;102164.47;5005247;28;20149;-47
2024/01/29 02:01:08;;;;;;;8.80;2.95;;;;;;;17.94;100.00;102159.63;5002554;28;20050;-49
2024/01/29 02:03:35;;;;;;;9.00;2.97;;;;;;;17.94;100.00;102165.28;4998498;28;20057;-46
2024/01/29 02:06:02;;;;;;;8.43;2.95;;;;;;;17.94;100.00;102165.28;5001395;28;20050;-47
2024/01/29 02:08:30;;;;;;;6.22;2.60;;;;;;;17.94;100.00;102161.66;5002570;28;20061;-47
2024/01/29 02:10:58;;;;;;;9.70;3.03;;;;;;;17.94;100.00;102164.47;4999427;28;20053;-46
2024/01/29 02:13:24;;;;;;;8.88;3.03;;;;;;;17.94;100.00;102158.84;5002981;28;20053;-48
2024/01/29 02:15:51;;;;;;;10.65;2.83;;;;;;;17.93;100.00;102162.84;5003485;28;20104;-47
2024/01/29 02:18:20;;;;;;;8.98;2.65;;;;;;;17.93;100.00;102162.84;5002054;28;20046;-48
2024/01/29 02:20:47;;;;;;;7.82;2.28;;;;;;;17.94;100.00;102162.47;4999318;28;20133;-46
2024/01/29 02:23:13;;;;;;;11.48;2.72;;;;;;;17.94;100.00;102172.91;4995870;28;20732;-47
2024/01/29 02:25:40;;;;;;;8.35;3.00;;;;;;;17.94;100.00;102167.28;5001597;28;20050;-47
2024/01/29 02:28:06;;;;;;;7.22;2.70;;;;;;;17.95;100.00;102154.81;5000971;28;20042;-47
2024/01/29 02:30:35;;;;;;;11.80;3.42;;;;;;;17.94;100.00;102154.00;4999077;28;20050;-47
2024/01/29 02:33:02;;;;;;;8.48;2.55;;;;;;;17.94;100.00;102153.22;5006445;28;20049;-47
2024/01/29 02:35:29;;;;;;;10.18;3.00;;;;;;;17.94;100.00;102165.28;4996843;28;20050;-48
2024/01/29 02:37:55;;;;;;;6.63;2.55;;;;;;;17.94;100.00;102161.66;5000409;28;20046;-45
2024/01/29 02:40:22;;;;;;;8.35;2.45;;;;;;;17.93;100.00;102152.44;4991924;28;20050;-47
2024/01/29 02:42:48;;;;;;;8.35;3.10;;;;;;;17.93;100.00;102152.44;5001650;28;20101;-46
2024/01/29 02:45:15;;;;;;;9.15;2.83;;;;;;;17.93;100.00;102151.59;4999853;28;20402;-46
2024/01/29 02:47:42;;;;;;;8.63;2.42;;;;;;;17.94;100.00;102148.38;4998476;28;20039;-48
2024/01/29 02:50:08;;;;;;;10.88;3.03;;;;;;;17.94;100.00;102151.19;5002654;28;20046;-51
2024/01/29 02:52:35;;;;;;;10.75;3.30;;;;;;;17.94;100.00;102154.00;5001411;28;20152;-46
2024/01/29 02:55:02;;;;;;;9.88;2.80;;;;;;;17.93;100.00;102165.66;5005901;28;20504;-47
2024/01/29 02:57:28;;;;;;;7.65;2.65;;;;;;;17.94;100.00;102165.28;5001629;28;20872;-47
2024/01/29 02:59:55;;;;;;;5.43;2.35;;;;;;;17.93;100.00;102163.69;5002351;28;20054;-48
2024/01/29 03:02:22;;;;;;;9.73;2.78;;;;;;;17.94;100.00;102167.28;5001646;28;20104;-47
2024/01/29 03:04:48;;;;;;;8.77;3.00;;;;;;;17.92;100.00;102167.69;4999700;28;20070;-48
2024/01/29 03:07:15;;;;;;;8.25;2.50;;;;;;;17.93;100.00;102172.13;4992657;28;20500;-48
2024/01/29 03:09:41;;;;;;;6.47;2.40;;;;;;;17.93;100.00;102177.75;4991424;28;20042;-44
2024/01/29 03:12:08;;;;;;;8.82;2.50;;;;;;;17.94;100.00;102181.34;4991571;28;20081;-46
2024/01/29 03:14:35;;;;;;;9.07;2.60;;;;;;;17.94;100.00;102175.72;4990540;28;20703;-50
2024/01/29 03:17:02;;;;;;;8.23;2.67;;;;;;;17.93;100.00;102168.47;4990237;28;20042;-50
2024/01/29 03:19:28;;;;;;;10.65;2.75;;;;;;;17.93;100.00;102174.09;4989626;28;20081;-48
2024/01/29 03:21:55;;;;;;;9.85;2.60;;;;;;;17.92;100.00;102164.09;4984790;28;20046;-48
2024/01/29 03:24:22;;;;;;;10.63;2.50;;;;;;;17.92;100.00;102169.72;4987516;28;20054;-47
2024/01/29 03:26:49;;;;;;;11.43;3.10;;;;;;;17.91;100.00;102168.91;4989450;28;20460;-49
2024/01/29 03:29:15;;;;;;;14.25;2.70;;;;;;;17.90;100.00;102163.72;4989421;28;20077;-50
2024/01/29 03:31:42;;;;;;;9.95;2.55;;;;;;;17.90;100.00;102167.34;4993438;28;20120;-50
2024/01/29 03:34:08;;;;;;;7.78;2.33;;;;;;;17.89;100.00;102165.72;4990284;28;20081;-50
2024/01/29 03:36:35;;;;;;;6.93;2.35;;;;;;;17.89;100.00;102162.13;4989042;28;20081;-48
2024/01/29 03:39:03;;;;;;;8.70;2.88;;;;;;;17.88;100.00;102175.41;4991002;28;20057;-49
2024/01/29 03:41:30;;;;;;;4.80;2.22;;;;;;;17.89;100.00;102167.78;4996851;28;20050;-49
2024/01/29 03:43:58;;;;;;;7.55;2.30;;;;;;;17.87;100.00;102170.22;4984792;28;20141;-49
2024/01/29 03:46:25;;;;;;;6.97;2.25;;;;;;;17.86;100.00;102163.00;4989103;28;20113;-49
2024/01/29 03:48:51;;;;;;;7.53;2.60;;;;;;;17.86;100.00;102169.44;4989509;28;20081;-49
2024/01/29 03:51:18;;;;;;;9.02;2.75;;;;;;;17.85;100.00;102156.56;4989860;28;20049;-47
2024/01/29 03:53:44;;;;;;;6.00;2.50;;;;;;;17.85;100.00;102173.47;4991766;28;20046;-47
2024/01/29 03:56:11;;;;;;;8.50;3.30;;;;;;;17.86;100.00;102177.06;4989296;28;20046;-48
2024/01/29 03:58:38;;;;;;;5.68;2.28;;;;;;;17.84;100.00;102166.25;4990185;28;20161;-48
2024/01/29 04:01:05;;;;;;;8.10;2.28;;;;;;;17.84;100.00;102174.69;4992765;28;20137;-50
2024/01/29 04:03:31;;;;;;;7.28;2.38;;;;;;;17.84;100.00;102168.25;4989766;28;20073;-47
2024/01/29 04:05:58;;;;;;;6.88;2.25;;;;;;;17.83;100.00;102167.50;4990970;28;20057;-48
2024/01/29 04:08:24;;;;;;;6.18;2.17;;;;;;;17.82;100.00;102160.25;4992897;28;20775;-45
2024/01/29 04:10:51;;;;;;;5.45;2.40;;;;;;;17.82;100.00;102163.06;5001053;28;20066;-49
2024/01/29 04:13:18;;;;;;;9.38;2.80;;;;;;;17.82;100.00;102162.28;4995531;28;20105;-49
2024/01/29 04:15:44;;;;;;;6.95;2.50;;;;;;;17.82;100.00;102165.09;4990395;28;20568;-47
2024/01/29 04:18:11;;;;;;;5.43;2.05;;;;;;;17.81;100.00;102164.31;4991392;28;20046;-48
2024/01/29 04:20:37;;;;;;;6.03;2.30;;;;;;;17.80;100.00;102164.72;4991482;28;20076;-50
2024/01/29 04:23:04;;;;;;;6.45;1.98;;;;;;;17.80;100.00;102162.72;4991710;28;20073;-50
2024/01/29 04:25:30;;;;;;;7.70;2.35;;;;;;;17.80;100.00;102165.53;4990351;28;20046;-49
2024/01/29 04:27:57;;;;;;;7.35;2.50;;;;;;;17.78;100.00;102167.19;4986544;28;20046;-50
2024/01/29 04:30:24;;;;;;;9.60;2.95;;;;;;;17.78;100.00;102161.56;4991499;28;20489;-48
2024/01/29 04:32:50;;;;;;;6.68;2.72;;;;;;;17.78;100.00;102167.19;4994411;28;20054;-50
2024/01/29 04:35:17;;;;;;;4.78;2.00;;;;;;;17.78;100.00;102170.00;4989750;28;20046;-50
2024/01/29 04:37:43;;;;;;;7.18;2.10;;;;;;;17.77;100.00;102176.84;4988764;28;20129;-49
2024/01/29 04:40:11;;;;;;;6.72;2.10;;;;;;;17.77;100.00;102179.66;4989652;28;20073;-47
2024/01/29 04:42:38;;;;;;;7.07;2.53;;;;;;;17.77;100.00;102174.03;4988141;28;20054;-49
2024/01/29 04:45:05;;;;;;;7.78;2.42;;;;;;;17.77;100.00;102179.66;4992559;28;20046;-50
2024/01/29 04:47:32;;;;;;;5.72;1.90;;;;;;;17.76;100.00;102180.91;4987956;28;20560;-46
2024/01/29 04:49:58;;;;;;;8.98;2.60;;;;;;;17.76;100.00;102192.16;4989471;28;20060;-49
2024/01/29 04:52:25;;;;;;;6.95;2.40;;;;;;;17.75;100.00;102184.94;4986901;28;20058;-48
2024/01/29 04:54:51;;;;;;;6.47;2.17;;;;;;;17.75;100.00;102185.72;4989150;28;20061;-48
2024/01/29 04:57:20;;;;;;;5.40;2.13;;;;;;;17.75;100.00;102179.31;4989291;28;20560;-49
2024/01/29 04:59:46;;;;;;;5.82;2.00;;;;;;;17.73;100.00;102182.56;4989183;28;20047;-49
2024/01/29 05:02:13;;;;;;;5.53;2.30;;;;;;;17.74;100.00;102180.53;4988298;28;20085;-49
2024/01/29 05:04:40;;;;;;;7.28;2.33;;;;;;;17.74;100.00;102186.16;4993083;28;20057;-50
2024/01/29 05:07:07;;;;;;;4.38;2.00;;;;;;;17.74;100.00;102186.94;4988983;28;20500;-47
2024/01/29 05:09:33;;;;;;;7.57;2.10;;;;;;;17.72;100.00;102186.56;4986852;28;20121;-50
2024/01/29 05:12:00;;;;;;;6.63;2.42;;;;;;;17.72;100.00;102185.81;4988609;28;20493;-50
2024/01/29 05:14:27;;;;;;;6.95;2.38;;;;;;;17.72;100.00;102188.63;4988120;28;20069;-49
2024/01/29 05:16:54;;;;;;;7.63;2.30;;;;;;;17.72;100.00;102183.00;4989145;28;20068;-50
2024/01/29 05:19:21;;;;;;;5.32;1.95;;;;;;;17.71;100.00;102179.38;4987512;28;20054;-48
2024/01/29 05:21:48;;;;;;;8.25;2.42;;;;;;;17.71;100.00;102179.38;4991478;28;20110;-50
2024/01/29 05:24:16;;;;;;;4.43;1.80;;;;;;;17.70;100.00;102172.16;4993350;28;20420;-50
2024/01/29 05:26:42;;;;;;;6.72;2.28;;;;;;;17.72;100.00;102177.38;4996299;28;20058;-48
2024/01/29 05:29:11;;;;;;;5.70;2.08;;;;;;;17.70;100.00;102189.03;4991159;28;20397;-47
2024/01/29 05:31:37;;;;;;;6.78;2.05;;;;;;;17.71;100.00;102189.81;4992277;28;20184;-49
2024/01/29 05:34:04;;;;;;;6.97;2.08;;;;;;;17.70;100.00;102186.22;4988259;28;20046;-49
2024/01/29 05:36:31;;;;;;;4.20;2.00;;;;;;;17.69;100.00;102193.09;4992265;28;20046;-49
2024/01/29 05:38:57;;;;;;;5.65;2.15;;;;;;;17.69;100.00;102189.47;4992329;28;20503;-49
2024/01/29 05:41:24;;;;;;;6.00;2.47;;;;;;;17.69;100.00;102192.28;4992518;28;20129;-50
2024/01/29 05:43:50;;;;;;;6.32;2.05;;;;;;;17.68;100.00;102191.47;4992206;28;20453;-50
2024/01/29 05:46:17;;;;;;;7.63;2.58;;;;;;;17.68;100.00;102191.47;4993035;28;20073;-47
2024/01/29 05:48:43;;;;;;;5.05;1.88;;;;;;;17.68;100.00;102196.34;4996278;28;20093;-47
2024/01/29 05:51:13;;;;;;;5.57;2.40;;;;;;;17.67;100.00;102197.53;4991306;28;20050;-49
2024/01/29 05:53:39;;;;;;;4.43;1.92;;;;;;;17.67;100.00;102194.72;4995053;28;20100;-49
2024/01/29 05:56:07;;;;;;;4.80;2.15;;;;;;;17.66;100.00;102196.75;4992467;28;20054;-50
2024/01/29 05:58:36;;;;;;;5.97;2.08;;;;;;;17.66;100.00;102198.78;4995663;28;20116;-49
2024/01/29 06:01:03;;;;;;;6.45;2.03;;;;;;;17.66;100.00;102199.56;4998005;28;20047;-50
2024/01/29 06:03:32;;;;;;;6.25;2.05;;;;;;;17.65;100.00;102200.78;4992059;28;20050;-50
2024/01/29 06:05:59;;;;;;;5.28;2.05;;;;;;;17.66;100.00;102201.59;4991930;28;20501;-48
2024/01/29 06:08:25;;;;;;;5.25;2.33;;;;;;;17.66;100.00;102204.41;4990192;28;20054;-49
2024/01/29 06:10:55;;;;;;;6.03;2.03;;;;;;;17.66;100.00;102205.19;4992081;28;20441;-50
2024/01/29 06:13:23;;;;;;;5.68;2.20;;;;;;;17.66;100.00;102210.03;4992595;28;20054;-48
2024/01/29 06:15:50;;;;;;;4.45;2.17;;;;;;;17.66;100.00;102215.66;4988524;28;20058;-49
2024/01/29 06:18:17;;;;;;;8.05;2.70;;;;;;;17.66;100.00;102224.88;4995875;28;20056;-49
2024/01/29 06:20:43;;;;;;;7.57;2.08;;;;;;;17.66;100.00;102226.91;4994501;28;20156;-49
2024/01/29 06:23:12;;;;;;;7.30;2.20;;;;;;;17.65;100.00;102217.66;4993143;28;20050;-48
2024/01/29 06:25:38;;;;;;;5.47;1.92;;;;;;;17.65;100.00;102216.88;4993185;28;20078;-50
2024/01/29 06:28:06;;;;;;;6.70;2.10;;;;;;;17.64;100.00;102227.31;4993422;28;20100;-49
2024/01/29 06:30:33;;;;;;;11.05;2.55;;;;;;;17.64;100.00;102212.47;4994386;28;20056;-49
2024/01/29 06:33:00;;;;;;;4.47;2.03;;;;;;;17.64;100.00;102226.53;4995273;28;20088;-50
2024/01/29 06:35:27;;;;;;;5.47;2.00;;;;;;;17.64;100.00;102223.72;4993401;28;20100;-48
2024/01/29 06:37:53;;;;;;;4.47;1.85;;;;;;;17.64;100.00;102221.69;4997939;28;20042;-50
2024/01/29 06:40:26;;;;;;;4.57;1.95;;;;;;;17.64;100.00;102230.13;4991087;28;20150;-50
2024/01/29 06:42:57;;;;;;;5.68;2.15;;;;;;;17.62;100.00;102228.97;4993260;28;20045;-47
2024/01/29 06:45:23;;;;;;;6.45;2.03;;;;;;;17.65;100.00;102233.75;4995147;28;20047;-46
2024/01/29 06:47:50;;;;;;;4.47;1.98;;;;;;;17.65;100.00;102236.56;4990223;28;20101;-48
2024/01/29 06:50:17;;;;;;;5.78;2.20;;;;;;;17.66;100.00;102238.16;4991583;28;20046;-47
2024/01/29 06:52:43;;;;;;;6.15;2.33;;;;;;;17.65;100.00;102237.34;4990694;28;20053;-46
2024/01/29 06:55:10;;;;;;;6.95;2.10;;;;;;;17.66;100.00;102246.59;4991734;28;20081;-48
2024/01/29 06:57:36;;;;;;;5.25;2.35;;;;;;;17.64;100.00;102240.59;4991371;28;20054;-48
2024/01/29 07:00:03;;;;;;;5.45;1.88;;;;;;;17.64;100.00;102229.34;4991969;28;20046;-48
2024/01/29 07:02:30;;;;;;;5.07;1.90;;;;;;;17.65;100.00;102233.75;4992624;28;20046;-50
2024/01/29 07:04:57;;;;;;;9.30;2.40;;;;;;;17.65;100.00;102242.97;4991645;28;20117;-49
2024/01/29 07:07:23;;;;;;;5.82;2.10;;;;;;;17.65;100.00;102236.56;4991686;28;20113;-49
2024/01/29 07:09:53;;;;;;;8.55;2.50;;;;;;;17.64;100.00;102229.34;4991778;28;20042;-50
2024/01/29 07:12:20;;;;;;;9.75;2.38;;;;;;;17.64;100.00;102232.16;4991413;28;20437;-49
2024/01/29 07:14:47;;;;;;;7.97;2.40;;;;;;;17.64;100.00;102243.41;4990830;28;20085;-46
2024/01/29 07:17:13;;;;;;;5.93;2.13;;;;;;;17.64;100.00;102240.59;4992336;28;20453;-47
2024/01/29 07:19:40;;;;;;;7.28;2.08;;;;;;;17.62;100.00;102243.81;4992510;28;20050;-49
2024/01/29 07:22:08;;;;;;;4.75;2.10;;;;;;;17.63;100.00;102244.63;4988605;28;20065;-50
2024/01/29 07:24:35;;;;;;;8.23;2.05;;;;;;;17.63;100.00;102244.63;4990391;28;20118;-50
2024/01/29 07:27:02;;;;;;;4.93;2.10;;;;;;;17.63;100.00;102248.25;4989361;28;20049;-47
2024/01/29 07:29:31;;;;;;;7.78;2.20;;;;;;;17.62;100.00;102249.44;4990276;28;20174;-49
2024/01/29 07:31:58;;;;;;;6.20;1.95;;;;;;;17.62;100.00;102248.69;4990373;28;20046;-49
2024/01/29 07:34:25;;;;;;;7.53;2.80;;;;;;;17.61;100.00;102259.13;4989392;28;20555;-48
2024/01/29 07:36:52;;;;;;;8.55;2.20;;;;;;;17.62;100.00;102260.69;4994088;28;20061;-48
2024/01/29 07:39:18;;;;;;;7.95;1.98;;;;;;;17.61;100.00;102258.34;4990596;28;20046;-49
2024/01/29 07:41:48;;;;;;;5.95;1.98;;;;;;;17.60;100.00;102254.72;4989365;28;20054;-47
2024/01/29 07:44:15;;;;;;;5.38;2.03;;;;;;;17.60;100.00;102265.16;4984960;28;20486;-47
2024/01/29 07:46:42;;;;;;;6.60;2.25;;;;;;;17.60;100.00;102257.53;4989278;28;20101;-46
2024/01/29 07:49:12;;;;;;;7.03;2.60;;;;;;;17.60;100.00;102279.22;4990269;28;20093;-48
2024/01/29 07:51:40;;;;;;;4.13;2.15;;;;;;;17.61;100.00;102258.34;4994156;28;20050;-48
2024/01/29 07:54:08;;;;;;;9.05;2.20;;;;;;;17.61;100.00;102266.78;4989996;28;20074;-48
2024/01/29 07:56:35;;;;;;;5.45;1.90;;;;;;;17.59;100.00;102263.59;4989106;28;20137;-47
2024/01/29 07:59:02;;;;;;;6.28;2.10;;;;;;;17.60;100.00;102263.16;4988797;28;20053;-48
2024/01/29 08:01:29;;;;;;;4.85;2.22;;;;;;;17.60;100.00;102273.59;4989966;28;20109;-48
2024/01/29 08:03:55;;;;;;;6.28;2.13;;;;;;;17.60;100.00;102273.59;4989045;28;20081;-49
2024/01/29 08:06:22;;;;;;;7.70;3.08;;;;;;;17.59;100.00;102269.22;4990244;28;20046;-49
2024/01/29 08:08:49;;;;;;;4.68;1.75;;;;;;;17.58;100.00;102265.59;4990843;28;20501;-51
2024/01/29 08:11:15;;;;;;;6.07;2.47;;;;;;;17.58;100.00;102268.41;4996807;28;20077;-50
2024/01/29 08:13:42;;;;;;;5.43;2.03;;;;;;;17.59;100.00;102266.41;4988712;28;20054;-50
2024/01/29 08:16:08;;;;;;;4.82;1.83;;;;;;;17.58;100.00;102271.22;4989790;28;20077;-50
2024/01/29 08:18:35;;;;;;;6.53;2.33;;;;;;;17.57;100.00;102257.59;4987871;28;20160;-49
2024/01/29 08:21:03;;;;;;;3.92;1.85;;;;;;;17.58;100.00;102259.19;4988560;28;20690;-48
2024/01/29 08:23:30;;;;;;;7.57;2.35;;;;;;;17.56;100.00;102256.81;4992063;28;20723;-50
2024/01/29 08:25:57;;;;;;;4.65;1.98;;;;;;;17.56;100.00;102256.00;4989065;28;20058;-50
2024/01/29 08:28:24;;;;;;;6.80;2.17;;;;;;;17.56;100.00;102256.00;4986377;28;20042;-50
2024/01/29 08:30:51;;;;;;;6.47;2.05;;;;;;;17.56;100.00;102247.56;4988277;28;20050;-50
2024/01/29 08:33:18;;;;;;;8.30;2.45;;;;;;;17.56;100.00;102253.19;4989865;28;20089;-49
2024/01/29 08:35:44;;;;;;;4.88;2.00;;;;;;;17.55;100.00;102246.00;4988599;28;20054;-47
2024/01/29 08:38:11;;;;;;;5.65;2.67;;;;;;;17.55;100.00;102257.25;4988973;28;20042;-46
2024/01/29 08:40:38;;;;;;;4.68;2.28;;;;;;;17.53;100.00;102251.25;4992853;28;20132;-48
2024/01/29 08:43:04;;;;;;;8.60;3.47;;;;;;;17.51;100.00;102262.13;4989238;28;20073;-48
2024/01/29 08:45:31;;;;;;;12.85;4.80;;;;;;;17.41;100.00;102265.94;4990418;28;20058;-46
2024/01/29 08:47:58;;;;;;;13.50;5.18;;;;;;;17.38;100.00;102265.53;4988994;28;20058;-47
2024/01/29 08:50:26;;;;;;;10.45;4.88;;;;;;;17.38;100.00;102261.94;4991897;28;20046;-47
2024/01/29 08:52:52;;;;;;;9.38;3.78;;;;;;;17.39;100.00;102269.94;4987998;28;20047;-48
2024/01/29 08:55:19;;;;;;;9.25;3.60;;;;;;;17.40;100.00;102265.13;4993257;28;20054;-46
2024/01/29 08:57:46;;;;;;;7.88;3.42;;;;;;;17.41;100.00;102263.88;4985679;28;20527;-46
2024/01/29 09:00:13;;;;;;;9.02;3.28;;;;;;;17.41;100.00;102261.06;4992212;28;20074;-47
2024/01/29 09:02:41;;;;;;;7.75;3.17;;;;;;;17.42;100.00;102269.09;4992665;28;20464;-48
2024/01/29 09:05:08;;;;;;;9.48;3.45;;;;;;;17.41;100.00;102271.56;4987997;28;20105;-48
2024/01/29 09:07:35;;;;;;;11.57;3.80;;;;;;;17.39;100.00;102274.78;4986369;28;20054;-48
2024/01/29 09:10:03;;;;;;;10.43;3.65;;;;;;;17.35;100.00;102272.03;4994896;28;20046;-45
2024/01/29 09:12:29;;;;;;;9.32;3.85;;;;;;;17.32;100.00;102277.72;4989712;28;20056;-48
2024/01/29 09:14:56;;;;;;;7.95;3.65;;;;;;;17.32;100.00;102280.53;4989637;28;20046;-46
2024/01/29 09:17:23;;;;;;;9.65;3.65;;;;;;;17.29;100.00;102279.34;4993828;28;20050;-45
2024/01/29 09:19:51;;;;;;;12.15;4.20;;;;;;;17.28;100.00;102280.56;4993481;28;20138;-46
2024/01/29 09:22:18;;;;;;;10.23;3.60;;;;;;;17.29;100.00;102287.00;4985865;28;20400;-45
2024/01/29 09:24:45;;;;;;;8.15;3.38;;;;;;;17.28;100.00;102285.38;4989635;28;20429;-46
2024/01/29 09:27:11;;;;;;;7.85;3.42;;;;;;;17.28;100.00;102288.19;4992116;28;20050;-45
2024/01/29 09:29:38;;;;;;;9.88;3.97;;;;;;;17.26;100.00;102288.63;4990652;28;20116;-45
2024/01/29 09:32:05;;;;;;;8.57;3.70;;;;;;;17.24;100.00;102288.28;4991891;28;20057;-47
2024/01/29 09:34:32;;;;;;;7.25;3.67;;;;;;;17.25;100.00;102284.22;4989774;28;20050;-46
2024/01/29 09:36:58;;;;;;;8.05;3.72;;;;;;;17.24;100.00;102290.28;4993498;28;20547;-50
2024/01/29 09:39:25;;;;;;;12.10;4.45;;;;;;;17.23;100.00;102275.44;4987901;28;20064;-46
2024/01/29 09:41:59;;;;;;;6.45;3.28;;;;;;;17.25;100.00;102273.00;4991045;28;20517;-47
2024/01/29 09:44:28;;;;;;;8.10;3.40;;;;;;;17.26;100.00;102271.75;4991704;28;20054;-47
2024/01/29 09:46:56;;;;;;;10.38;4.20;;;;;;;17.27;100.00;102276.19;4991903;28;20050;-46
2024/01/29 09:49:23;;;;;;;7.85;3.50;;;;;;;17.29;100.00;102278.56;4989845;28;20077;-47
2024/01/29 09:51:51;;;;;;;9.68;3.50;;;;;;;17.28;100.00;102289.00;4989352;28;20111;-47
2024/01/29 09:54:19;;;;;;;11.38;3.97;;;;;;;17.29;100.00;102293.41;4992041;28;20054;-46
2024/01/29 09:56:46;;;;;;;8.65;4.28;;;;;;;17.29;100.00;102301.84;4987421;28;20078;-47
2024/01/29 09:59:12;;;;;;;8.98;3.42;;;;;;;17.29;100.00;102299.03;4991283;28;20412;-48
2024/01/29 10:01:40;;;;;;;7.07;3.15;;;;;;;17.29;100.00;102299.03;4989098;28;20116;-48
2024/01/29 10:04:07;;;;;;;10.45;3.35;;;;;;;17.29;100.00;102304.63;4989452;28;20053;-50
2024/01/29 10:06:34;;;;;;;9.20;3.63;;;;;;;17.29;100.00;102299.03;4988265;28;20141;-46
2024/01/29 10:09:00;;;;;;;9.90;3.42;;;;;;;17.28;100.00;102291.00;4992775;28;20101;-47
2024/01/29 10:11:28;;;;;;;10.30;4.53;;;;;;;17.27;100.00;102301.47;4992018;28;20182;-46
2024/01/29 10:13:58;;;;;;;11.25;5.20;;;;;;;17.25;100.00;102297.50;4990381;28;20124;-48
2024/01/29 10:16:27;;;;;;;11.15;5.05;;;;;;;17.27;100.00;102304.28;4990291;28;20142;-49
2024/01/29 10:19:01;;;;;;;11.98;4.95;;;;;;;17.27;100.00;102303.47;4990632;28;20049;-47
2024/01/29 10:21:32;;;;;;;13.73;4.50;;;;;;;17.28;100.00;102305.06;4989529;28;20046;-48
2024/01/29 10:23:59;;;;;;;10.45;4.60;;;;;;;17.29;100.00;102310.25;4992792;28;20184;-47
2024/01/29 10:26:26;;;;;;;9.70;4.38;;;;;;;17.29;100.00;102298.25;4994678;28;20109;-47
2024/01/29 10:29:04;;;;;;;9.68;3.83;;;;;;;17.31;100.00;102309.84;4993290;28;20052;-47
2024/01/29 10:31:31;;;;;;;11.23;3.80;;;;;;;17.30;100.00;102305.44;4992947;28;20050;-46
2024/01/29 10:33:59;;;;;;;8.88;3.70;;;;;;;17.30;100.00;102306.25;5000016;28;21750;-47
2024/01/29 10:36:26;;;;;;;9.77;4.28;;;;;;;17.31;100.00;102307.03;4995974;28;20054;-50
2024/01/29 10:39:03;;;;;;;7.95;3.80;;;;;;;17.31;100.00;102307.84;4991142;28;20210;-46
2024/01/29 10:41:32;;;;;;;10.60;3.92;;;;;;;17.32;100.00;102311.44;4995978;28;20054;-46
2024/01/29 10:44:03;;;;;;;12.27;4.60;;;;;;;17.31;100.00;102307.84;4995859;28;20198;-48
2024/01/29 10:46:35;;;;;;;12.50;4.25;;;;;;;17.32;100.00;102308.63;4987995;28;20054;-48
2024/01/29 10:49:01;;;;;;;8.98;3.78;;;;;;;17.32;100.00;102309.41;4996213;28;20493;-46
2024/01/29 10:51:31;;;;;;;9.82;3.70;;;;;;;17.33;100.00;102313.84;4996349;28;20116;-46
2024/01/29 10:53:59;;;;;;;10.10;3.90;;;;;;;17.34;100.00;102311.81;4992481;28;20085;-48
2024/01/29 10:56:27;;;;;;;7.32;3.63;;;;;;;17.33;100.00;102296.97;4992104;28;20137;-47
2024/01/29 10:58:58;;;;;;;6.60;3.58;;;;;;;17.33;100.00;102291.34;4991058;28;20065;-50
2024/01/29 11:01:28;;;;;;;9.80;3.70;;;;;;;17.34;100.00;102309.00;4991549;28;20104;-45
2024/01/29 11:03:59;;;;;;;9.52;4.05;;;;;;;17.34;100.00;102301.38;4993185;28;20315;-47
2024/01/29 11:06:53;;;;;;;11.02;4.50;;;;;;;17.34;100.00;102298.56;4988458;28;20159;-45
2024/01/29 11:09:24;;;;;;;9.70;3.95;;;;;;;17.36;100.00;102295.31;4990439;28;20054;-47
2024/01/29 11:11:52;;;;;;;6.25;3.55;;;;;;;17.36;100.00;102292.50;4989215;28;20050;-50
2024/01/29 11:14:19;;;;;;;7.45;3.58;;;;;;;17.36;100.00;102292.50;4991916;28;20088;-48